Terminal Aerodrome Forecast
Issued by NWS

Home | Current Version | Previous Version | Text Only | Print | Product List | Glossary On
Versions: 1 2 3 4 5 6 7 8 9 10 11
000
FTUS44 KCRP 272100 AAA
TAFLRD
TAF AMD
KLRD 272125Z 2721/2818 36015KT P6SM OVC025
      TEMPO 2721/2724 OVC012
     FM281200 34008KT P6SM SCT035=

USA.gov is the U.S. government's official web portal to all federal, state and local government web resources and services.